Airport ICAO


14:33 UTC

13°C

Broken clouds


An affordable passengers' Moving Map for your aircraft. Made for the iPad and the iPhone
More information here

LFLS Saint Geoirs


Grenoble FRANCE   VFR


METAR LFLS 241400Z AUTO 25003KT 210V310 9999 FEW066 BKN120 13/06 Q1018 NOSIG 0h33min

TAF LFLS 241400Z 2415/2515 25004KT CAVOK TEMPO 2415/2417 -RA BECMG 2503/2505 RA OVC060 BECMG 2505/2508 6000 RA SCT015 OVC035 BECMG 2512/2514 8000 SCT025 BKN040 0h33min





NOTAMS

OPEN